Terminal Aerodrome Forecast
Issued by NWS

Current Version | Previous Version | Graphics & Text | Print | Product List | Glossary On
Versions: 1 2 3 4 5 6 7 8 9 10 11 12 13 14 15 16 17 18 19
000
FTUS41 KILN 261400 AAA
TAFLCK
TAF AMD
KLCK 261411Z 2614/2712 02012KT P6SM OVC090
     FM261600 02012KT P6SM OVC040
      TEMPO 2616/2618 4SM -SN OVC020
     FM261800 36012KT P6SM VCSH OVC018
     FM270300 35009KT P6SM SCT015 OVC030
     FM271000 35006KT P6SM SCT035=

USA.gov is the U.S. government's official web portal to all federal, state and local government web resources and services.